createdAt,value
2023-01-25T00:00:29.378Z,20.25
2023-01-25T00:02:56.682Z,18.73
2023-01-25T00:05:23.886Z,19.85
2023-01-25T00:07:51.145Z,20.88
2023-01-25T00:10:18.480Z,21.20
2023-01-25T00:12:45.867Z,18.75
2023-01-25T00:15:13.265Z,20.25
2023-01-25T00:17:40.432Z,19.13
2023-01-25T00:20:07.984Z,20.33
2023-01-25T00:22:35.198Z,21.70
2023-01-25T00:25:02.409Z,22.05
2023-01-25T00:27:29.667Z,20.27
2023-01-25T00:29:56.850Z,19.85
2023-01-25T00:32:24.376Z,20.25
2023-01-25T00:34:52.109Z,19.92
2023-01-25T00:37:26.259Z,21.13
2023-01-25T00:39:53.417Z,20.90
2023-01-25T00:42:22.172Z,20.42
2023-01-25T00:44:49.757Z,21.00
2023-01-25T00:47:17.332Z,21.27
2023-01-25T00:49:45.700Z,20.13
2023-01-25T00:52:13.309Z,23.48
2023-01-25T00:54:40.944Z,21.75
2023-01-25T00:57:08.210Z,20.08
2023-01-25T00:59:36.092Z,21.27
2023-01-25T01:02:03.718Z,21.38
2023-01-25T01:04:31.653Z,20.48
2023-01-25T01:06:58.947Z,22.75
2023-01-25T01:09:26.377Z,21.70
2023-01-25T01:11:55.090Z,22.40
2023-01-25T01:14:24.807Z,21.65
2023-01-25T01:16:52.203Z,22.60
2023-01-25T01:19:19.349Z,24.27
2023-01-25T01:21:46.850Z,23.27
2023-01-25T01:24:14.181Z,23.17
2023-01-25T01:26:41.369Z,23.02
2023-01-25T01:29:08.835Z,25.35
2023-01-25T01:31:36.932Z,23.63
2023-01-25T01:34:12.781Z,23.20
2023-01-25T01:36:40.043Z,24.30
2023-01-25T01:39:07.315Z,24.05
2023-01-25T01:41:34.399Z,23.70
2023-01-25T01:44:01.697Z,23.20
2023-01-25T01:46:33.358Z,23.98
2023-01-25T01:49:05.414Z,24.92
2023-01-25T01:51:32.530Z,23.53
2023-01-25T01:54:02.334Z,23.67
2023-01-25T01:56:32.150Z,22.90
2023-01-25T01:59:03.794Z,24.50
2023-01-25T02:01:32.076Z,23.73
2023-01-25T02:03:59.776Z,24.40
2023-01-25T02:06:34.793Z,24.30
2023-01-25T02:09:02.750Z,24.70
2023-01-25T02:11:29.938Z,23.70
2023-01-25T02:13:57.420Z,25.63
2023-01-25T02:16:26.355Z,27.90
2023-01-25T02:18:54.723Z,25.45
2023-01-25T02:21:24.283Z,26.70
2023-01-25T02:24:02.020Z,27.08
2023-01-25T02:26:29.950Z,25.63
2023-01-25T02:28:59.773Z,26.30
2023-01-25T02:31:27.180Z,24.75
2023-01-25T02:33:54.452Z,26.95
2023-01-25T02:36:32.028Z,26.77
2023-01-25T02:39:08.065Z,26.92
2023-01-25T02:41:43.680Z,26.00
2023-01-25T02:44:13.362Z,25.73
2023-01-25T02:46:42.524Z,25.27
2023-01-25T02:49:11.799Z,27.15
2023-01-25T02:51:40.980Z,26.90
2023-01-25T02:54:09.028Z,25.30
2023-01-25T02:56:36.389Z,23.67
2023-01-25T02:59:06.526Z,23.85
2023-01-25T03:01:36.415Z,22.53
2023-01-25T03:04:05.299Z,24.42
2023-01-25T03:06:34.415Z,23.98
2023-01-25T03:09:02.108Z,23.65
2023-01-25T03:11:29.589Z,23.15
2023-01-25T03:13:58.903Z,22.98
2023-01-25T03:16:26.086Z,23.42
2023-01-25T03:18:54.837Z,24.10
2023-01-25T03:21:24.023Z,22.88
2023-01-25T03:23:59.334Z,22.58
2023-01-25T03:26:30.660Z,21.05
2023-01-25T03:29:11.999Z,22.13
2023-01-25T03:31:43.119Z,21.65
2023-01-25T03:34:10.591Z,23.20
2023-01-25T03:36:41.239Z,22.70
2023-01-25T03:39:08.376Z,22.17
2023-01-25T03:41:40.147Z,22.07
2023-01-25T03:44:13.587Z,21.88
2023-01-25T03:46:43.047Z,20.98
2023-01-25T03:49:11.650Z,21.92
2023-01-25T03:51:39.136Z,21.58
2023-01-25T03:54:08.331Z,23.52
2023-01-25T03:56:36.905Z,22.90
2023-01-25T04:01:36.141Z,19.80
2023-01-25T04:04:03.833Z,22.08
2023-01-25T04:06:31.085Z,22.00
2023-01-25T04:08:58.442Z,22.48
2023-01-25T04:11:28.167Z,22.70
2023-01-25T04:13:55.299Z,21.67
2023-01-25T04:16:30.395Z,23.45
2023-01-25T04:19:12.263Z,21.83
2023-01-25T04:21:40.161Z,21.73
2023-01-25T04:24:09.646Z,19.92
2023-01-25T04:26:39.955Z,22.02
2023-01-25T04:29:07.263Z,21.90
2023-01-25T04:31:35.116Z,22.27
2023-01-25T04:34:03.003Z,22.27
2023-01-25T04:36:30.239Z,21.30
2023-01-25T04:38:58.469Z,20.80
2023-01-25T04:41:29.105Z,20.33
2023-01-25T04:43:56.895Z,22.48
2023-01-25T04:46:25.257Z,21.75
2023-01-25T04:48:53.819Z,22.67
2023-01-25T04:51:21.614Z,20.92
2023-01-25T04:53:48.849Z,21.08
2023-01-25T04:56:16.052Z,21.67
2023-01-25T04:58:53.786Z,24.45
2023-01-25T05:01:22.217Z,21.33
2023-01-25T05:03:50.950Z,21.40
2023-01-25T05:06:29.154Z,21.98
2023-01-25T05:08:56.642Z,19.58
2023-01-25T05:11:24.023Z,21.50
2023-01-25T05:14:07.591Z,22.15
2023-01-25T05:16:35.221Z,21.58
2023-01-25T05:19:03.812Z,20.90
2023-01-25T05:21:58.627Z,21.67
2023-01-25T05:24:30.547Z,21.08
2023-01-25T05:27:05.993Z,21.70
2023-01-25T05:29:58.927Z,22.00
2023-01-25T05:32:44.853Z,19.92
2023-01-25T05:35:13.926Z,22.10
2023-01-25T05:37:41.163Z,20.40
2023-01-25T05:40:15.228Z,21.38
2023-01-25T05:42:44.011Z,22.67
2023-01-25T05:45:18.061Z,22.67
2023-01-25T05:47:48.377Z,22.05
2023-01-25T05:50:16.006Z,21.23
2023-01-25T05:52:54.653Z,21.23
2023-01-25T05:55:21.824Z,19.30
2023-01-25T05:57:51.656Z,20.33
2023-01-25T06:00:19.294Z,20.50
2023-01-25T06:02:46.619Z,21.13
2023-01-25T06:05:21.411Z,20.45
2023-01-25T06:07:49.339Z,20.75
2023-01-25T06:10:18.104Z,20.35
2023-01-25T06:12:47.487Z,20.77
2023-01-25T06:15:14.829Z,20.33
2023-01-25T06:17:41.926Z,21.23
2023-01-25T06:20:18.569Z,19.48
2023-01-25T06:23:05.909Z,21.05
2023-01-25T06:25:33.034Z,19.40
2023-01-25T06:28:00.175Z,22.38
2023-01-25T06:30:27.322Z,20.80
2023-01-25T06:32:54.613Z,18.85
2023-01-25T06:35:21.734Z,20.85
2023-01-25T06:37:48.903Z,20.27
2023-01-25T06:40:16.453Z,20.05
2023-01-25T06:42:43.718Z,20.80
2023-01-25T06:45:11.862Z,20.58
2023-01-25T06:47:39.472Z,19.23
2023-01-25T06:50:07.009Z,20.25
2023-01-25T06:52:36.471Z,21.25
2023-01-25T06:55:08.333Z,21.25
2023-01-25T06:57:35.644Z,19.85
2023-01-25T07:00:02.775Z,21.83
2023-01-25T07:02:30.638Z,20.23
2023-01-25T07:04:57.759Z,20.20
2023-01-25T07:07:24.979Z,19.33
2023-01-25T07:09:53.582Z,21.40
2023-01-25T07:12:22.248Z,20.42
2023-01-25T07:14:49.659Z,21.75
2023-01-25T07:17:16.850Z,18.52
2023-01-25T07:19:43.980Z,19.90
2023-01-25T07:22:11.286Z,20.70
2023-01-25T07:24:38.583Z,20.77
2023-01-25T07:27:05.746Z,19.75
2023-01-25T07:29:32.876Z,21.23
2023-01-25T07:32:00.047Z,21.50
2023-01-25T07:34:28.914Z,21.13
2023-01-25T07:36:57.432Z,20.98
2023-01-25T07:39:24.661Z,20.40
2023-01-25T07:41:51.767Z,22.02
2023-01-25T07:44:20.554Z,21.58
2023-01-25T07:46:50.920Z,19.17
2023-01-25T07:49:18.016Z,22.45
2023-01-25T07:51:45.204Z,22.05
2023-01-25T07:54:12.591Z,23.10
2023-01-25T07:56:40.621Z,20.70
2023-01-25T07:59:10.730Z,21.38
2023-01-25T08:01:38.754Z,20.85
2023-01-25T08:04:06.047Z,21.45
2023-01-25T08:06:35.881Z,21.52
2023-01-25T08:09:05.035Z,22.67
2023-01-25T08:11:32.751Z,20.38
2023-01-25T08:14:01.908Z,21.73
2023-01-25T08:16:29.622Z,22.60
2023-01-25T08:18:57.955Z,23.73
2023-01-25T08:21:29.973Z,23.23
2023-01-25T08:24:00.732Z,21.65
2023-01-25T08:26:28.064Z,23.52
2023-01-25T08:28:55.593Z,23.33
2023-01-25T08:31:24.189Z,23.00
2023-01-25T08:33:51.772Z,23.25
2023-01-25T08:36:19.999Z,24.38
2023-01-25T08:38:47.915Z,21.70
2023-01-25T08:41:16.861Z,25.42
2023-01-25T08:43:44.303Z,23.73
2023-01-25T08:46:12.228Z,23.52
2023-01-25T08:48:39.531Z,23.65
2023-01-25T08:51:09.036Z,23.77
2023-01-25T08:53:36.176Z,22.50
2023-01-25T08:56:13.592Z,22.98
2023-01-25T08:58:41.912Z,25.38
2023-01-25T09:01:10.172Z,22.42
2023-01-25T09:03:38.741Z,25.17
2023-01-25T09:06:06.078Z,25.52
2023-01-25T09:08:33.585Z,25.17
2023-01-25T09:11:04.479Z,24.63
2023-01-25T09:13:34.010Z,23.83
2023-01-25T09:16:02.230Z,24.70
2023-01-25T09:18:30.076Z,25.02
2023-01-25T09:20:57.498Z,23.92
2023-01-25T09:23:25.032Z,23.10
2023-01-25T09:25:59.183Z,23.40
2023-01-25T09:28:30.148Z,22.83
2023-01-25T09:31:19.756Z,23.58
2023-01-25T09:34:06.925Z,22.52
2023-01-25T09:36:34.103Z,21.48
2023-01-25T09:39:01.398Z,23.30
2023-01-25T09:41:44.018Z,22.10
2023-01-25T09:44:30.792Z,22.05
2023-01-25T09:46:59.927Z,21.02
2023-01-25T09:49:42.615Z,22.88
2023-01-25T09:52:21.806Z,21.58
2023-01-25T09:54:50.251Z,21.17
2023-01-25T09:57:22.891Z,21.35
2023-01-25T10:02:17.330Z,22.45
2023-01-25T10:04:45.137Z,22.35
2023-01-25T10:07:23.591Z,23.42
2023-01-25T10:10:26.757Z,24.67
2023-01-25T10:15:25.517Z,22.40
2023-01-25T10:17:58.358Z,24.73
2023-01-25T10:20:29.083Z,23.60
2023-01-25T10:23:04.305Z,23.27
2023-01-25T10:25:44.041Z,22.83
2023-01-25T10:28:20.396Z,25.67
2023-01-25T10:30:57.443Z,24.65
2023-01-25T10:33:24.694Z,26.25
2023-01-25T10:35:51.782Z,24.00
2023-01-25T10:38:24.943Z,22.98
2023-01-25T10:41:10.832Z,24.45
2023-01-25T10:43:39.242Z,22.55
2023-01-25T10:46:18.191Z,23.30
2023-01-25T10:48:48.051Z,23.55
2023-01-25T10:51:35.572Z,23.05
2023-01-25T10:54:03.900Z,21.58
2023-01-25T10:56:33.392Z,22.70
2023-01-25T10:59:20.803Z,22.20
2023-01-25T11:01:48.130Z,22.65
2023-01-25T11:04:35.329Z,22.73
2023-01-25T11:07:04.977Z,21.13
2023-01-25T11:09:39.471Z,23.25
2023-01-25T11:12:16.765Z,21.25
2023-01-25T11:14:44.099Z,21.60
2023-01-25T11:17:23.603Z,22.55
2023-01-25T11:20:05.874Z,21.95
2023-01-25T11:22:32.979Z,24.30
2023-01-25T11:25:00.144Z,22.05
2023-01-25T11:27:28.071Z,21.30
2023-01-25T11:30:07.876Z,22.75
2023-01-25T11:32:38.816Z,23.27
2023-01-25T11:35:07.364Z,21.23
2023-01-25T11:37:39.812Z,25.10
2023-01-25T11:40:15.838Z,22.90
2023-01-25T11:42:59.868Z,24.05
2023-01-25T11:45:45.453Z,20.58
2023-01-25T11:48:18.667Z,23.05
2023-01-25T11:50:53.312Z,22.63
2023-01-25T11:53:39.063Z,23.40
2023-01-25T11:56:20.552Z,22.35
2023-01-25T11:59:06.533Z,21.95
2023-01-25T12:01:52.041Z,21.08
2023-01-25T12:04:31.379Z,24.02
2023-01-25T12:06:58.854Z,22.30
2023-01-25T12:09:41.928Z,22.42
2023-01-25T12:12:27.691Z,23.27
2023-01-25T12:15:12.557Z,21.30
2023-01-25T12:17:57.918Z,20.90
2023-01-25T12:20:43.791Z,22.92
2023-01-25T12:23:11.103Z,23.30
2023-01-25T12:25:53.520Z,22.98
2023-01-25T12:28:23.466Z,22.13
2023-01-25T12:30:57.229Z,22.58
2023-01-25T12:33:37.085Z,23.17
2023-01-25T12:36:07.937Z,24.48
2023-01-25T12:38:50.637Z,23.05
2023-01-25T12:44:05.101Z,22.73
2023-01-25T12:46:35.631Z,21.83
2023-01-25T12:49:06.981Z,24.05
2023-01-25T12:51:39.379Z,23.75
2023-01-25T12:54:25.536Z,23.02
2023-01-25T12:56:58.388Z,22.20
2023-01-25T12:59:34.064Z,23.75
2023-01-25T13:02:08.170Z,23.92
2023-01-25T13:04:38.278Z,24.10
2023-01-25T13:07:22.076Z,23.90
2023-01-25T13:09:56.905Z,24.65
2023-01-25T13:12:24.670Z,23.92
2023-01-25T13:14:52.035Z,24.00
2023-01-25T13:17:21.996Z,22.90
2023-01-25T13:19:49.878Z,22.80
2023-01-25T13:22:36.966Z,23.98
2023-01-25T13:25:04.185Z,25.52
2023-01-25T13:27:34.655Z,25.05
2023-01-25T13:30:22.038Z,27.08
2023-01-25T13:32:52.014Z,23.67
2023-01-25T13:35:26.906Z,24.08
2023-01-25T13:38:05.877Z,24.67
2023-01-25T13:40:37.735Z,22.02
2023-01-25T13:43:07.102Z,24.45
2023-01-25T13:45:36.198Z,23.27
2023-01-25T13:48:17.125Z,24.02
2023-01-25T13:50:48.920Z,23.48
2023-01-25T13:53:16.307Z,24.08
2023-01-25T13:55:48.055Z,22.88
2023-01-25T13:58:15.220Z,24.23
2023-01-25T14:01:02.143Z,25.10
2023-01-25T14:03:30.421Z,23.33
2023-01-25T14:05:59.008Z,25.75
2023-01-25T14:08:27.505Z,23.73
2023-01-25T14:10:55.176Z,25.63
2023-01-25T14:13:22.495Z,24.98
2023-01-25T14:15:59.891Z,25.98
2023-01-25T14:18:38.441Z,24.73
2023-01-25T14:21:20.777Z,23.83
2023-01-25T14:23:48.664Z,24.40
2023-01-25T14:26:19.300Z,23.60
2023-01-25T14:28:59.316Z,22.70
2023-01-25T14:31:30.673Z,23.95
2023-01-25T14:33:58.438Z,20.95
2023-01-25T14:36:29.780Z,22.40
2023-01-25T14:38:57.107Z,22.38
2023-01-25T14:41:34.643Z,20.70
2023-01-25T14:44:15.723Z,22.83
2023-01-25T14:46:43.155Z,22.60
2023-01-25T14:49:10.333Z,22.92
2023-01-25T14:51:42.188Z,24.13
2023-01-25T14:54:20.253Z,22.77
2023-01-25T14:56:51.367Z,21.70
2023-01-25T14:59:21.642Z,23.17
2023-01-25T15:01:55.272Z,23.15
2023-01-25T15:04:23.483Z,23.80
2023-01-25T15:06:54.639Z,22.70
2023-01-25T15:09:31.209Z,24.05
2023-01-25T15:12:02.308Z,24.42
2023-01-25T15:14:29.654Z,22.77
2023-01-25T15:16:56.990Z,23.73
2023-01-25T15:19:31.707Z,25.00
2023-01-25T15:21:59.972Z,24.83
2023-01-25T15:24:28.161Z,26.20
2023-01-25T15:26:55.756Z,25.08
2023-01-25T15:29:29.712Z,25.20
2023-01-25T15:31:57.012Z,22.77
2023-01-25T15:34:37.327Z,23.27
2023-01-25T15:37:14.486Z,21.63
2023-01-25T15:39:42.839Z,25.63
2023-01-25T15:42:09.981Z,23.30
2023-01-25T15:44:37.329Z,23.25
2023-01-25T15:47:04.585Z,24.13
2023-01-25T15:49:32.334Z,24.52
2023-01-25T15:51:59.810Z,23.38
2023-01-25T15:54:26.924Z,23.25
2023-01-25T15:56:58.203Z,23.63
2023-01-25T15:59:26.974Z,23.13
2023-01-25T16:01:54.140Z,25.00
2023-01-25T16:04:21.361Z,22.13
2023-01-25T16:06:52.967Z,21.98
2023-01-25T16:09:21.655Z,24.63
2023-01-25T16:11:51.249Z,21.02
2023-01-25T16:14:19.125Z,23.00
2023-01-25T16:16:49.417Z,22.30
2023-01-25T16:19:17.613Z,22.73
2023-01-25T16:21:44.814Z,23.92
2023-01-25T16:24:12.172Z,25.52
2023-01-25T16:26:41.227Z,24.50
2023-01-25T16:29:08.415Z,25.65
2023-01-25T16:31:35.653Z,24.98
2023-01-25T16:34:03.113Z,23.45
2023-01-25T16:36:31.440Z,23.45
2023-01-25T16:39:09.994Z,24.63
2023-01-25T16:41:37.509Z,25.98
2023-01-25T16:44:04.686Z,24.45
2023-01-25T16:46:31.836Z,24.33
2023-01-25T16:48:59.649Z,25.08
2023-01-25T16:51:27.870Z,24.83
2023-01-25T16:53:56.169Z,26.05
2023-01-25T16:56:24.458Z,24.52
2023-01-25T16:58:51.931Z,27.88
2023-01-25T17:01:20.128Z,24.33
2023-01-25T17:03:47.498Z,26.15
2023-01-25T17:06:19.474Z,25.65
2023-01-25T17:08:47.369Z,23.08
2023-01-25T17:11:14.537Z,24.58
2023-01-25T17:13:41.815Z,25.80
2023-01-25T17:16:09.137Z,24.98
2023-01-25T17:18:36.307Z,28.55
2023-01-25T17:21:05.768Z,25.20
2023-01-25T17:23:33.952Z,26.65
2023-01-25T17:26:07.888Z,23.52
2023-01-25T17:28:35.015Z,23.45
2023-01-25T17:31:02.636Z,24.25
2023-01-25T17:33:32.578Z,22.70
2023-01-25T17:36:02.687Z,24.92
2023-01-25T17:38:30.116Z,23.85
2023-01-25T17:40:57.224Z,25.50
2023-01-25T17:43:24.601Z,25.77
2023-01-25T17:45:51.798Z,27.75
2023-01-25T17:48:18.955Z,25.40
2023-01-25T17:50:46.131Z,24.00
2023-01-25T17:53:13.308Z,25.33
2023-01-25T17:55:40.461Z,23.38
2023-01-25T17:58:07.507Z,25.55
2023-01-25T18:00:34.767Z,26.05
2023-01-25T18:03:01.915Z,27.30
2023-01-25T18:05:29.155Z,26.63
2023-01-25T18:07:56.445Z,26.48
2023-01-25T18:10:23.741Z,25.25
2023-01-25T18:13:03.575Z,26.38
2023-01-25T18:15:31.791Z,27.45
2023-01-25T18:17:59.958Z,29.02
2023-01-25T18:20:27.083Z,28.83
2023-01-25T18:22:54.173Z,26.38
2023-01-25T18:25:41.724Z,30.42
2023-01-25T18:28:11.097Z,26.63
2023-01-25T18:30:44.476Z,24.65
2023-01-25T18:33:11.629Z,26.65
2023-01-25T18:35:38.825Z,28.00
2023-01-25T18:38:06.069Z,26.80
2023-01-25T18:40:33.271Z,25.45
2023-01-25T18:43:01.493Z,25.55
2023-01-25T18:45:28.673Z,26.80
2023-01-25T18:47:55.972Z,28.17
2023-01-25T18:50:23.711Z,25.95
2023-01-25T18:52:51.662Z,29.58
2023-01-25T18:55:18.902Z,26.60
2023-01-25T18:57:46.113Z,26.85
2023-01-25T19:00:14.871Z,25.38
2023-01-25T19:02:44.471Z,28.75
2023-01-25T19:05:11.919Z,28.00
2023-01-25T19:07:39.374Z,28.80
2023-01-25T19:10:06.765Z,28.52
2023-01-25T19:12:33.908Z,30.02
2023-01-25T19:15:01.307Z,31.05
2023-01-25T19:17:28.575Z,27.15
2023-01-25T19:19:55.858Z,28.38
2023-01-25T19:22:23.014Z,30.42
2023-01-25T19:24:50.133Z,29.45
2023-01-25T19:27:17.344Z,30.40
2023-01-25T19:29:44.478Z,30.30
2023-01-25T19:32:11.642Z,30.90
2023-01-25T19:34:39.118Z,30.48
2023-01-25T19:37:06.605Z,29.67
2023-01-25T19:39:33.715Z,31.70
2023-01-25T19:42:01.059Z,30.80
2023-01-25T19:44:28.320Z,29.25
2023-01-25T19:46:55.467Z,30.15
2023-01-25T19:49:22.703Z,29.70
2023-01-25T19:51:53.080Z,31.33
2023-01-25T19:54:20.979Z,28.58
2023-01-25T19:56:49.380Z,31.15
2023-01-25T19:59:18.306Z,32.25
2023-01-25T20:01:46.069Z,28.55
2023-01-25T20:04:14.499Z,30.08
2023-01-25T20:06:42.115Z,32.47
2023-01-25T20:09:09.335Z,30.20
2023-01-25T20:11:36.490Z,29.10
2023-01-25T20:14:04.662Z,32.03
2023-01-25T20:16:32.718Z,31.15
2023-01-25T20:19:00.412Z,29.77
2023-01-25T20:21:28.840Z,30.20
2023-01-25T20:24:00.180Z,29.85
2023-01-25T20:26:32.471Z,30.20
2023-01-25T20:28:59.874Z,29.27
2023-01-25T20:31:31.713Z,30.38
2023-01-25T20:34:00.156Z,31.77
2023-01-25T20:36:30.662Z,28.13
2023-01-25T20:38:58.095Z,30.08
2023-01-25T20:41:25.328Z,32.15
2023-01-25T20:43:53.838Z,31.40
2023-01-25T20:46:22.070Z,31.98
2023-01-25T20:48:52.001Z,27.58
2023-01-25T20:51:21.413Z,27.55
2023-01-25T20:53:49.286Z,29.52
2023-01-25T20:56:16.894Z,28.48
2023-01-25T20:58:50.079Z,29.17
2023-01-25T21:01:19.179Z,28.95
2023-01-25T21:03:46.551Z,28.35
2023-01-25T21:06:14.124Z,30.60
2023-01-25T21:08:41.811Z,30.38
2023-01-25T21:11:09.679Z,31.77
2023-01-25T21:13:36.811Z,31.98
2023-01-25T21:16:21.835Z,30.58
2023-01-25T21:18:54.571Z,30.70
2023-01-25T21:21:22.855Z,32.80
2023-01-25T21:23:50.667Z,31.02
2023-01-25T21:26:19.521Z,32.38
2023-01-25T21:28:47.043Z,31.98
2023-01-25T21:31:21.188Z,32.38
2023-01-25T21:33:48.797Z,30.80
2023-01-25T21:36:17.419Z,34.42
2023-01-25T21:38:46.014Z,31.83
2023-01-25T21:41:14.631Z,32.47
2023-01-25T21:44:00.530Z,32.58
2023-01-25T21:46:28.506Z,32.15
2023-01-25T21:49:18.203Z,34.08
2023-01-25T21:51:49.102Z,32.33
2023-01-25T21:54:37.062Z,32.63
2023-01-25T21:57:08.596Z,34.08
2023-01-25T21:59:36.501Z,34.60
2023-01-25T22:02:04.374Z,34.00
2023-01-25T22:04:35.861Z,34.70
2023-01-25T22:07:03.757Z,34.17
2023-01-25T22:09:30.951Z,33.70
2023-01-25T22:11:58.284Z,34.15
2023-01-25T22:14:25.565Z,34.53
2023-01-25T22:16:52.978Z,32.83
2023-01-25T22:19:20.175Z,35.20
2023-01-25T22:21:47.391Z,34.50
2023-01-25T22:24:14.758Z,33.35
2023-01-25T22:26:44.726Z,36.45
2023-01-25T22:29:12.311Z,34.53
2023-01-25T22:31:39.965Z,35.58
2023-01-25T22:34:07.501Z,33.67
2023-01-25T22:36:34.990Z,34.10
2023-01-25T22:39:02.077Z,34.65
2023-01-25T22:41:30.773Z,32.67
2023-01-25T22:43:58.080Z,34.22
2023-01-25T22:46:28.244Z,32.33
2023-01-25T22:48:55.563Z,34.17
2023-01-25T22:51:25.460Z,33.45
2023-01-25T22:53:52.815Z,32.17
2023-01-25T22:56:21.358Z,32.35
2023-01-25T22:58:48.594Z,34.58
2023-01-25T23:01:16.975Z,35.10
2023-01-25T23:03:44.165Z,34.22
2023-01-25T23:06:17.993Z,35.33
2023-01-25T23:08:45.172Z,33.55
2023-01-25T23:11:16.753Z,36.40
2023-01-25T23:14:03.265Z,35.22
2023-01-25T23:16:30.915Z,34.97
2023-01-25T23:18:58.443Z,37.00
2023-01-25T23:21:27.229Z,35.88
2023-01-25T23:23:57.972Z,36.97
2023-01-25T23:26:25.176Z,34.28
2023-01-25T23:28:53.395Z,35.42
2023-01-25T23:31:21.874Z,34.70
2023-01-25T23:33:50.259Z,35.17
2023-01-25T23:36:21.540Z,35.60
2023-01-25T23:38:49.321Z,36.95
2023-01-25T23:41:17.010Z,35.67
2023-01-25T23:43:44.508Z,33.38
2023-01-25T23:46:14.205Z,35.30
2023-01-25T23:48:42.001Z,35.03
2023-01-25T23:51:10.898Z,37.90
2023-01-25T23:53:38.577Z,36.78
2023-01-25T23:56:06.972Z,36.10
2023-01-25T23:58:34.813Z,35.83
